createdAt,value
2019-02-04T00:01:29.125Z,4.00
2019-02-04T00:03:59.174Z,3.87
2019-02-04T00:06:29.225Z,4.03
2019-02-04T00:08:59.334Z,4.47
2019-02-04T00:11:29.387Z,4.37
2019-02-04T00:13:59.435Z,4.27
2019-02-04T00:16:40.353Z,4.73
2019-02-04T00:19:21.070Z,5.10
2019-02-04T00:21:51.147Z,5.20
2019-02-04T00:24:21.229Z,5.37
2019-02-04T00:26:52.009Z,5.70
2019-02-04T00:29:22.484Z,5.00
2019-02-04T00:31:52.556Z,6.20
2019-02-04T00:34:22.618Z,5.67
2019-02-04T00:36:53.642Z,5.23
2019-02-04T00:39:23.972Z,6.00
2019-02-04T00:41:54.046Z,5.43
2019-02-04T00:44:24.099Z,5.73
2019-02-04T00:46:54.156Z,6.10
2019-02-04T00:49:24.219Z,6.03
2019-02-04T00:51:54.272Z,5.87
2019-02-04T00:54:24.339Z,5.37
2019-02-04T00:56:54.396Z,5.97
2019-02-04T00:59:24.452Z,6.30
2019-02-04T01:01:54.516Z,6.67
2019-02-04T01:04:24.567Z,7.07
2019-02-04T01:06:56.533Z,6.70
2019-02-04T01:09:26.595Z,7.30
2019-02-04T01:11:56.659Z,7.87
2019-02-04T01:14:26.725Z,7.17
2019-02-04T01:17:03.311Z,7.57
2019-02-04T01:19:28.556Z,7.50
2019-02-04T01:21:58.628Z,7.20
2019-02-04T01:24:28.673Z,8.07
2019-02-04T01:27:07.834Z,8.30
2019-02-04T01:29:37.900Z,7.93
2019-02-04T01:32:07.962Z,8.53
2019-02-04T01:34:38.024Z,7.57
2019-02-04T01:37:08.093Z,8.17
2019-02-04T01:39:38.150Z,7.83
2019-02-04T01:42:08.209Z,8.73
2019-02-04T01:44:38.660Z,7.87
2019-02-04T01:47:14.642Z,8.30
2019-02-04T01:49:40.472Z,8.07
2019-02-04T01:52:10.539Z,8.80
2019-02-04T01:54:40.590Z,8.20
2019-02-04T01:57:10.655Z,8.03
2019-02-04T01:59:40.734Z,7.70
2019-02-04T02:02:10.797Z,8.93
2019-02-04T02:04:40.854Z,8.10
2019-02-04T02:07:10.910Z,7.77
2019-02-04T02:09:40.961Z,8.37
2019-02-04T02:12:11.102Z,8.47
2019-02-04T02:14:41.151Z,8.10
2019-02-04T02:17:11.221Z,8.23
2019-02-04T02:19:41.292Z,8.50
2019-02-04T02:22:11.350Z,8.20
2019-02-04T02:24:41.576Z,8.00
2019-02-04T02:27:11.641Z,9.40
2019-02-04T02:29:41.698Z,8.83
2019-02-04T02:32:12.227Z,9.00
2019-02-04T02:34:42.278Z,8.03
2019-02-04T02:37:12.344Z,8.57
2019-02-04T02:39:42.516Z,8.57
2019-02-04T02:42:12.557Z,9.37
2019-02-04T02:44:42.732Z,8.53
2019-02-04T02:47:12.781Z,8.70
2019-02-04T02:49:42.854Z,8.13
2019-02-04T02:52:13.299Z,9.07
2019-02-04T02:54:43.360Z,9.00
2019-02-04T02:57:13.436Z,8.03
2019-02-04T02:59:43.497Z,8.63
2019-02-04T03:02:13.567Z,9.47
2019-02-04T03:04:43.866Z,9.37
2019-02-04T03:07:13.940Z,9.60
2019-02-04T03:09:43.984Z,9.23
2019-02-04T03:12:14.056Z,8.43
2019-02-04T03:14:44.105Z,9.50
2019-02-04T03:17:15.241Z,8.30
2019-02-04T03:19:45.671Z,8.83
2019-02-04T03:22:15.751Z,8.17
2019-02-04T03:24:45.803Z,8.90
2019-02-04T03:27:15.874Z,8.60
2019-02-04T03:29:45.950Z,8.67
2019-02-04T03:32:16.379Z,8.67
2019-02-04T03:34:46.435Z,8.63
2019-02-04T03:37:17.528Z,9.03
2019-02-04T03:39:47.534Z,8.47
2019-02-04T03:42:17.600Z,8.27
2019-02-04T03:44:47.672Z,8.87
2019-02-04T03:47:17.728Z,8.50
2019-02-04T03:49:47.801Z,8.07
2019-02-04T03:52:17.859Z,8.90
2019-02-04T03:54:48.978Z,9.20
2019-02-04T03:57:19.049Z,9.27
2019-02-04T03:59:49.115Z,8.57
2019-02-04T04:02:19.171Z,8.67
2019-02-04T04:04:49.238Z,8.70
2019-02-04T04:07:19.304Z,8.77
2019-02-04T04:09:49.373Z,8.27
2019-02-04T04:12:19.709Z,9.10
2019-02-04T04:14:49.779Z,9.07
2019-02-04T04:17:19.845Z,9.20
2019-02-04T04:19:49.917Z,9.00
2019-02-04T04:22:19.976Z,8.80
2019-02-04T04:24:50.049Z,8.90
2019-02-04T04:27:20.110Z,9.20
2019-02-04T04:29:50.191Z,9.10
2019-02-04T04:32:20.250Z,8.60
2019-02-04T04:34:50.332Z,9.97
2019-02-04T04:37:20.402Z,9.03
2019-02-04T04:39:51.151Z,9.37
2019-02-04T04:42:21.207Z,9.30
2019-02-04T04:44:52.353Z,9.37
2019-02-04T04:47:22.418Z,9.63
2019-02-04T04:49:52.495Z,8.90
2019-02-04T04:52:22.842Z,10.27
2019-02-04T04:54:53.886Z,9.33
2019-02-04T04:57:23.955Z,9.73
2019-02-04T04:59:54.035Z,9.77
2019-02-04T05:02:24.080Z,9.83
2019-02-04T05:04:54.152Z,9.73
2019-02-04T05:07:24.210Z,10.03
2019-02-04T05:09:55.258Z,10.37
2019-02-04T05:12:25.310Z,9.60
2019-02-04T05:14:55.381Z,11.07
2019-02-04T05:17:25.435Z,9.40
2019-02-04T05:20:16.719Z,10.10
2019-02-04T05:22:47.731Z,8.90
2019-02-04T05:25:17.864Z,9.17
2019-02-04T05:28:00.159Z,9.03
2019-02-04T05:30:30.225Z,8.93
2019-02-04T05:33:00.276Z,9.07
2019-02-04T05:35:30.355Z,9.63
2019-02-04T05:38:00.402Z,8.30
2019-02-04T05:40:30.868Z,9.20
2019-02-04T05:43:00.904Z,9.10
2019-02-04T05:45:31.002Z,9.63
2019-02-04T05:48:02.671Z,7.80
2019-02-04T05:50:32.746Z,7.90
2019-02-04T05:53:02.797Z,8.93
2019-02-04T05:55:32.873Z,8.43
2019-02-04T05:58:02.941Z,8.20
2019-02-04T06:00:34.638Z,8.70
2019-02-04T06:03:04.694Z,8.73
2019-02-04T06:05:34.759Z,7.90
2019-02-04T06:08:04.889Z,8.37
2019-02-04T06:10:34.963Z,8.40
2019-02-04T06:13:05.019Z,7.80
2019-02-04T06:15:41.022Z,8.33
2019-02-04T06:18:15.247Z,7.70
2019-02-04T06:20:46.234Z,7.50
2019-02-04T06:23:16.286Z,7.63
2019-02-04T06:25:46.358Z,7.23
2019-02-04T06:28:16.424Z,7.87
2019-02-04T06:30:46.496Z,7.77
2019-02-04T06:33:16.544Z,7.50
2019-02-04T06:35:46.683Z,8.13
2019-02-04T06:38:16.731Z,7.80
2019-02-04T06:40:46.801Z,7.67
2019-02-04T06:43:16.854Z,7.37
2019-02-04T06:45:47.302Z,8.00
2019-02-04T06:48:17.356Z,8.17
2019-02-04T06:50:47.427Z,8.10
2019-02-04T06:53:17.491Z,7.53
2019-02-04T06:55:47.564Z,8.47
2019-02-04T06:58:17.635Z,7.13
2019-02-04T07:00:47.766Z,7.53
2019-02-04T07:03:17.811Z,7.43
2019-02-04T07:05:47.885Z,7.87
2019-02-04T07:08:17.932Z,7.63
2019-02-04T07:10:48.023Z,7.23
2019-02-04T07:13:18.076Z,7.83
2019-02-04T07:15:48.150Z,7.93
2019-02-04T07:18:18.213Z,7.40
2019-02-04T07:20:48.282Z,7.30
2019-02-04T07:23:37.804Z,7.33
2019-02-04T07:26:07.902Z,7.33
2019-02-04T07:28:37.956Z,6.93
2019-02-04T07:31:20.551Z,7.07
2019-02-04T07:33:50.630Z,6.97
2019-02-04T07:36:20.976Z,7.23
2019-02-04T07:38:51.037Z,6.63
2019-02-04T07:41:21.119Z,6.37
2019-02-04T07:43:51.183Z,6.83
2019-02-04T07:46:21.255Z,6.83
2019-02-04T07:48:51.305Z,6.90
2019-02-04T07:51:21.361Z,7.03
2019-02-04T07:53:51.415Z,6.43
2019-02-04T07:56:21.487Z,6.03
2019-02-04T07:58:51.545Z,6.13
2019-02-04T08:01:21.616Z,6.53
2019-02-04T08:03:52.160Z,6.83
2019-02-04T08:06:22.233Z,5.93
2019-02-04T08:08:52.315Z,6.07
2019-02-04T08:11:22.355Z,6.40
2019-02-04T08:13:52.414Z,6.80
2019-02-04T08:16:22.481Z,5.80
2019-02-04T08:18:52.544Z,6.00
2019-02-04T08:21:22.608Z,6.30
2019-02-04T08:23:52.671Z,5.60
2019-02-04T08:26:22.741Z,5.37
2019-02-04T08:28:52.822Z,5.80
2019-02-04T08:31:23.159Z,6.27
2019-02-04T08:33:53.210Z,6.23
2019-02-04T08:36:23.269Z,6.47
2019-02-04T08:38:53.316Z,5.83
2019-02-04T08:41:23.392Z,5.93
2019-02-04T08:43:53.433Z,6.00
2019-02-04T08:46:23.881Z,5.83
2019-02-04T08:48:53.940Z,6.23
2019-02-04T08:51:24.033Z,6.00
2019-02-04T08:53:54.156Z,6.03
2019-02-04T08:56:24.310Z,5.90
2019-02-04T08:58:54.376Z,5.53
2019-02-04T09:01:24.801Z,6.00
2019-02-04T09:03:54.866Z,6.00
2019-02-04T09:06:24.956Z,6.27
2019-02-04T09:08:55.003Z,5.75
2019-02-04T09:11:25.070Z,5.75
2019-02-04T09:13:55.138Z,5.90
2019-02-04T09:16:25.221Z,5.10
2019-02-04T09:18:55.273Z,5.92
2019-02-04T09:21:25.340Z,5.37
2019-02-04T09:23:55.394Z,5.47
2019-02-04T09:26:25.460Z,5.40
2019-02-04T09:28:55.521Z,5.15
2019-02-04T09:31:25.575Z,5.30
2019-02-04T09:33:55.628Z,5.30
2019-02-04T09:36:25.773Z,7.45
2019-02-04T09:38:55.840Z,4.70
2019-02-04T09:41:25.946Z,5.50
2019-02-04T09:43:56.366Z,4.87
2019-02-04T09:46:26.434Z,5.08
2019-02-04T09:48:56.478Z,5.20
2019-02-04T09:51:26.539Z,5.17
2019-02-04T09:53:56.588Z,5.87
2019-02-04T09:56:26.661Z,4.80
2019-02-04T09:58:56.998Z,5.60
2019-02-04T10:01:27.077Z,5.20
2019-02-04T10:03:57.094Z,5.12
2019-02-04T10:06:27.159Z,4.95
2019-02-04T10:08:57.207Z,5.47
2019-02-04T10:11:27.269Z,5.62
2019-02-04T10:13:57.313Z,5.90
2019-02-04T10:16:27.465Z,5.53
2019-02-04T10:18:57.497Z,5.53
2019-02-04T10:21:27.525Z,5.55
2019-02-04T10:23:57.573Z,5.90
2019-02-04T10:26:27.691Z,6.65
2019-02-04T10:28:57.743Z,6.40
2019-02-04T10:31:27.757Z,6.53
2019-02-04T10:33:57.849Z,6.08
2019-02-04T10:36:27.880Z,6.20
2019-02-04T10:38:58.318Z,5.80
2019-02-04T10:41:28.420Z,6.53
2019-02-04T10:43:58.550Z,4.83
2019-02-04T10:46:28.590Z,5.62
2019-02-04T10:48:58.647Z,5.72
2019-02-04T10:51:28.698Z,6.17
2019-02-04T10:53:58.761Z,6.15
2019-02-04T10:56:28.852Z,6.60
2019-02-04T10:58:58.903Z,6.30
2019-02-04T11:01:28.929Z,7.55
2019-02-04T11:03:59.027Z,7.40
2019-02-04T11:06:29.082Z,7.65
2019-02-04T11:08:59.169Z,6.45
2019-02-04T11:11:29.254Z,6.50
2019-02-04T11:14:00.574Z,7.12
2019-02-04T11:16:30.613Z,7.10
2019-02-04T11:19:00.663Z,6.33
2019-02-04T11:21:30.757Z,7.33
2019-02-04T11:24:00.819Z,6.83
2019-02-04T11:26:30.853Z,7.33
2019-02-04T11:29:00.909Z,7.90
2019-02-04T11:31:30.971Z,7.35
2019-02-04T11:34:01.413Z,7.08
2019-02-04T11:36:31.549Z,8.15
2019-02-04T11:39:01.643Z,7.10
2019-02-04T11:41:33.323Z,6.22
2019-02-04T11:44:03.362Z,8.20
2019-02-04T11:46:33.487Z,6.83
2019-02-04T11:49:03.532Z,7.22
2019-02-04T11:51:33.592Z,6.95
2019-02-04T11:54:03.688Z,6.17
2019-02-04T11:56:33.750Z,6.92
2019-02-04T11:59:03.880Z,6.95
2019-02-04T12:01:34.217Z,7.30
2019-02-04T12:04:04.556Z,7.00
2019-02-04T12:06:34.607Z,6.90
2019-02-04T12:09:06.936Z,5.97
2019-02-04T12:11:36.995Z,7.17
2019-02-04T12:14:07.063Z,6.65
2019-02-04T12:16:37.128Z,6.45
2019-02-04T12:19:07.202Z,6.30
2019-02-04T12:21:37.257Z,7.05
2019-02-04T12:24:07.324Z,6.30
2019-02-04T12:26:37.375Z,6.65
2019-02-04T12:29:07.721Z,6.70
2019-02-04T12:31:37.815Z,7.22
2019-02-04T12:34:07.835Z,6.05
2019-02-04T12:36:37.895Z,7.10
2019-02-04T12:39:10.032Z,6.30
2019-02-04T12:41:40.109Z,6.92
2019-02-04T12:44:10.162Z,6.90
2019-02-04T12:46:40.227Z,7.90
2019-02-04T12:49:10.288Z,7.47
2019-02-04T12:51:40.348Z,6.95
2019-02-04T12:54:10.414Z,6.80
2019-02-04T12:56:40.561Z,6.97
2019-02-04T12:59:10.722Z,7.65
2019-02-04T13:01:40.766Z,6.78
2019-02-04T13:04:10.825Z,7.30
2019-02-04T13:06:40.887Z,7.40
2019-02-04T13:09:10.967Z,7.23
2019-02-04T13:11:42.961Z,7.17
2019-02-04T13:14:13.329Z,7.53
2019-02-04T13:16:43.409Z,7.10
2019-02-04T13:19:13.471Z,8.03
2019-02-04T13:21:45.637Z,8.07
2019-02-04T13:24:15.298Z,7.33
2019-02-04T13:26:45.346Z,7.67
2019-02-04T13:29:15.411Z,7.50
2019-02-04T13:31:45.468Z,8.60
2019-02-04T13:34:15.531Z,8.03
2019-02-04T13:36:45.869Z,7.97
2019-02-04T13:39:15.943Z,7.00
2019-02-04T13:41:45.991Z,7.43
2019-02-04T13:44:16.051Z,8.07
2019-02-04T13:46:46.111Z,7.83
2019-02-04T13:49:16.171Z,7.40
2019-02-04T13:51:56.854Z,7.40
2019-02-04T13:54:17.978Z,6.50
2019-02-04T13:56:48.042Z,7.55
2019-02-04T13:59:18.098Z,7.40
2019-02-04T14:01:48.161Z,7.70
2019-02-04T14:04:19.860Z,7.35
2019-02-04T14:06:49.952Z,7.70
2019-02-04T14:09:20.004Z,8.77
2019-02-04T14:11:50.063Z,8.80
2019-02-04T14:14:20.112Z,9.10
2019-02-04T14:16:50.541Z,7.40
2019-02-04T14:19:20.608Z,8.50
2019-02-04T14:21:50.658Z,8.27
2019-02-04T14:24:20.719Z,8.27
2019-02-04T14:26:50.774Z,8.67
2019-02-04T14:29:20.843Z,8.67
2019-02-04T14:31:50.909Z,8.13
2019-02-04T14:34:20.972Z,7.80
2019-02-04T14:36:51.032Z,8.73
2019-02-04T14:39:21.095Z,7.67
2019-02-04T14:41:51.137Z,8.47
2019-02-04T14:44:23.015Z,8.97
2019-02-04T14:47:03.694Z,8.30
2019-02-04T14:49:53.257Z,9.70
2019-02-04T14:53:03.980Z,8.20
2019-02-04T14:55:50.739Z,9.13
2019-02-04T14:58:28.400Z,8.50
2019-02-04T15:01:36.141Z,9.30
2019-02-04T15:04:38.101Z,8.53
2019-02-04T15:07:38.797Z,7.87
2019-02-04T15:10:34.320Z,9.20
2019-02-04T15:13:32.771Z,8.45
2019-02-04T15:16:14.557Z,9.07
2019-02-04T15:19:20.903Z,8.53
2019-02-04T15:22:32.996Z,8.20
2019-02-04T15:25:33.199Z,8.58
2019-02-04T15:28:32.068Z,9.30
2019-02-04T15:31:16.219Z,9.03
2019-02-04T15:34:12.080Z,8.93
2019-02-04T15:37:16.739Z,8.43
2019-02-04T15:40:18.184Z,8.97
2019-02-04T15:43:47.207Z,8.55
2019-02-04T15:46:30.316Z,8.35
2019-02-04T15:49:38.002Z,9.40
2019-02-04T15:52:08.060Z,8.87
2019-02-04T15:54:38.135Z,9.35
2019-02-04T15:57:08.191Z,9.30
2019-02-04T15:59:38.542Z,8.27
2019-02-04T16:02:08.610Z,8.38
2019-02-04T16:04:38.675Z,9.60
2019-02-04T16:07:09.000Z,9.98
2019-02-04T16:09:39.080Z,8.57
2019-02-04T16:12:10.217Z,8.27
2019-02-04T16:14:40.363Z,9.23
2019-02-04T16:17:10.499Z,8.50
2019-02-04T16:19:41.594Z,9.90
2019-02-04T16:22:11.647Z,9.27
2019-02-04T16:24:41.726Z,9.27
2019-02-04T16:27:15.083Z,9.83
2019-02-04T16:29:45.968Z,10.37
2019-02-04T16:32:16.029Z,9.57
2019-02-04T16:34:46.131Z,10.03
2019-02-04T16:37:16.164Z,9.20
2019-02-04T16:39:47.313Z,8.88
2019-02-04T16:42:17.376Z,8.95
2019-02-04T16:44:47.448Z,9.65
2019-02-04T16:47:17.518Z,8.23
2019-02-04T16:49:47.593Z,8.20
2019-02-04T16:52:17.649Z,7.83
2019-02-04T16:54:47.900Z,8.08
2019-02-04T16:57:17.957Z,6.92
2019-02-04T16:59:48.049Z,8.95
2019-02-04T17:02:18.107Z,8.50
2019-02-04T17:04:48.274Z,8.55
2019-02-04T17:07:18.342Z,9.73
2019-02-04T17:09:48.430Z,9.17
2019-02-04T17:12:18.480Z,9.70
2019-02-04T17:14:48.567Z,8.83
2019-02-04T17:17:18.610Z,9.20
2019-02-04T17:19:48.696Z,8.95
2019-02-04T17:22:19.133Z,9.20
2019-02-04T17:24:49.235Z,8.93
2019-02-04T17:27:19.294Z,10.15
2019-02-04T17:29:49.363Z,10.32
2019-02-04T17:32:19.428Z,9.43
2019-02-04T17:34:49.508Z,9.85
2019-02-04T17:37:19.616Z,9.68
2019-02-04T17:39:49.721Z,9.78
2019-02-04T17:42:19.791Z,10.30
2019-02-04T17:44:49.872Z,10.47
2019-02-04T17:47:19.937Z,10.50
2019-02-04T17:49:50.393Z,9.78
2019-02-04T17:52:20.728Z,10.45
2019-02-04T17:54:50.807Z,9.77
2019-02-04T17:57:20.866Z,10.32
2019-02-04T17:59:50.942Z,10.50
2019-02-04T18:02:21.084Z,9.98
2019-02-04T18:04:51.456Z,11.40
2019-02-04T18:07:21.514Z,10.67
2019-02-04T18:09:51.584Z,11.45
2019-02-04T18:12:21.644Z,10.20
2019-02-04T18:14:51.723Z,10.48
2019-02-04T18:17:22.058Z,10.70
2019-02-04T18:19:52.265Z,10.72
2019-02-04T18:22:22.350Z,10.20
2019-02-04T18:24:52.539Z,11.17
2019-02-04T18:27:22.606Z,10.60
2019-02-04T18:29:52.727Z,10.77
2019-02-04T18:32:22.794Z,10.78
2019-02-04T18:34:52.918Z,10.82
2019-02-04T18:37:23.381Z,11.33
2019-02-04T18:39:53.437Z,11.18
2019-02-04T18:42:23.493Z,9.90
2019-02-04T18:44:53.837Z,11.43
2019-02-04T18:47:23.961Z,13.00
2019-02-04T18:49:54.045Z,11.60
2019-02-04T18:52:24.115Z,10.75
2019-02-04T18:55:03.290Z,11.78
2019-02-04T18:57:34.317Z,11.73
2019-02-04T19:00:11.084Z,10.70
2019-02-04T19:02:41.145Z,11.97
2019-02-04T19:05:12.057Z,11.28
2019-02-04T19:07:42.390Z,11.63
2019-02-04T19:10:18.719Z,12.63
2019-02-04T19:12:51.633Z,14.40
2019-02-04T19:15:27.778Z,14.60
2019-02-04T19:18:02.531Z,13.05
2019-02-04T19:20:32.618Z,14.47
2019-02-04T19:23:02.786Z,14.53
2019-02-04T19:25:32.836Z,14.50
2019-02-04T19:28:02.902Z,14.40
2019-02-04T19:30:49.401Z,13.40
2019-02-04T19:33:19.475Z,14.75
2019-02-04T19:35:49.544Z,15.35
2019-02-04T19:38:19.610Z,14.85
2019-02-04T19:40:49.722Z,16.12
2019-02-04T19:43:20.078Z,16.65
2019-02-04T19:45:50.176Z,15.25
2019-02-04T19:48:20.235Z,15.15
2019-02-04T19:50:50.321Z,15.93
2019-02-04T19:53:22.695Z,16.57
2019-02-04T19:55:52.162Z,15.20
2019-02-04T19:58:22.219Z,14.87
2019-02-04T20:00:52.314Z,15.93
2019-02-04T20:03:22.367Z,16.90
2019-02-04T20:05:52.561Z,17.23
2019-02-04T20:08:22.618Z,18.02
2019-02-04T20:10:53.069Z,16.00
2019-02-04T20:13:23.130Z,17.20
2019-02-04T20:15:54.112Z,17.48
2019-02-04T20:18:24.172Z,16.80
2019-02-04T20:20:54.252Z,18.80
2019-02-04T20:23:24.313Z,18.82
2019-02-04T20:25:54.396Z,21.17
2019-02-04T20:28:24.458Z,19.87
2019-02-04T20:30:54.975Z,20.77
2019-02-04T20:33:27.699Z,19.02
2019-02-04T20:35:58.755Z,19.98
2019-02-04T20:38:29.214Z,20.88
2019-02-04T20:41:00.743Z,19.98
2019-02-04T20:43:30.777Z,23.12
2019-02-04T20:46:00.863Z,20.17
2019-02-04T20:48:31.240Z,21.13
2019-02-04T20:51:02.950Z,22.40
2019-02-04T20:53:33.010Z,22.65
2019-02-04T20:56:04.132Z,22.22
2019-02-04T20:58:34.193Z,24.37
2019-02-04T21:01:11.296Z,25.00
2019-02-04T21:03:41.352Z,22.40
2019-02-04T21:06:11.418Z,21.95
2019-02-04T21:08:45.480Z,23.87
2019-02-04T21:11:15.636Z,24.23
2019-02-04T21:13:55.752Z,22.67
2019-02-04T21:16:25.902Z,22.80
2019-02-04T21:19:01.931Z,25.10
2019-02-04T21:21:31.999Z,22.73
2019-02-04T21:24:02.065Z,25.00
2019-02-04T21:26:32.145Z,24.37
2019-02-04T21:29:02.394Z,24.25
2019-02-04T21:31:51.891Z,22.77
2019-02-04T21:34:21.957Z,23.47
2019-02-04T21:36:53.032Z,23.45
2019-02-04T21:39:23.284Z,23.50
2019-02-04T21:41:53.365Z,23.10
2019-02-04T21:44:23.422Z,22.00
2019-02-04T21:46:53.496Z,22.50
2019-02-04T21:49:23.554Z,21.80
2019-02-04T21:51:53.886Z,22.90
2019-02-04T21:54:23.948Z,22.70
2019-02-04T21:56:54.011Z,21.27
2019-02-04T21:59:24.074Z,23.80
2019-02-04T22:01:54.142Z,21.77
2019-02-04T22:04:24.362Z,21.73
2019-02-04T22:06:54.819Z,22.60
2019-02-04T22:09:25.283Z,22.27
2019-02-04T22:11:55.314Z,21.42
2019-02-04T22:14:25.391Z,21.00
2019-02-04T22:16:55.454Z,21.00
2019-02-04T22:19:25.529Z,23.15
2019-02-04T22:21:55.597Z,24.12
2019-02-04T22:24:25.671Z,22.87
2019-02-04T22:26:55.729Z,22.22
2019-02-04T22:29:25.786Z,22.98
2019-02-04T22:31:55.849Z,22.62
2019-02-04T22:34:26.292Z,22.00
2019-02-04T22:36:56.361Z,20.77
2019-02-04T22:39:26.430Z,21.80
2019-02-04T22:41:56.503Z,23.15
2019-02-04T22:44:26.561Z,20.75
2019-02-04T22:46:57.247Z,22.62
2019-02-04T22:49:27.303Z,22.10
2019-02-04T22:51:57.386Z,22.15
2019-02-04T22:54:27.465Z,21.33
2019-02-04T22:56:57.529Z,22.13
2019-02-04T22:59:27.596Z,23.18
2019-02-04T23:01:57.671Z,20.68
2019-02-04T23:04:28.009Z,22.37
2019-02-04T23:06:58.088Z,22.67
2019-02-04T23:09:28.149Z,20.90
2019-02-04T23:11:58.227Z,24.23
2019-02-04T23:14:28.286Z,21.60
2019-02-04T23:16:58.348Z,21.27
2019-02-04T23:19:29.593Z,24.25
2019-02-04T23:22:12.138Z,24.35
2019-02-04T23:24:42.219Z,23.50
2019-02-04T23:27:12.277Z,24.87
2019-02-04T23:29:42.521Z,22.42
2019-02-04T23:32:12.581Z,23.20
2019-02-04T23:34:42.649Z,21.75
2019-02-04T23:37:12.714Z,21.95
2019-02-04T23:39:42.778Z,23.70
2019-02-04T23:42:12.846Z,22.55
2019-02-04T23:44:42.906Z,23.42
2019-02-04T23:47:12.984Z,25.20
2019-02-04T23:49:43.041Z,24.57
2019-02-04T23:52:13.116Z,22.80
2019-02-04T23:54:43.201Z,22.10
2019-02-04T23:57:13.644Z,22.62
2019-02-04T23:59:43.787Z,21.82
